Time;durP1;ratioP1;P1;durP2;ratioP2;P2;SDS_P1;SDS_P2;PMS_P1;PMS_P2;Temp;Humidity;BMP_temperature;BMP_pressure;BME280_temperature;BME280_humidity;BME280_pressure;Samples;Min_cycle;Max_cycle;Signal;HPM_P1;HPM_P2
2022/04/08 00:04:16;;;;;;;8.57;1.57;;;9.10;86.80;;;;;;10454624;28;20223;-73
2022/04/08 00:09:16;;;;;;;8.90;1.93;;;9.00;87.70;;;;;;10450295;28;20225;-72
2022/04/08 00:14:20;;;;;;;6.80;1.53;;;9.00;88.70;;;;;;10453642;28;20224;-72
2022/04/08 00:19:21;;;;;;;7.07;1.50;;;9.00;88.50;;;;;;10457900;28;20727;-70
2022/04/08 00:24:22;;;;;;;9.97;1.73;;;9.00;88.90;;;;;;10448914;28;20234;-72
2022/04/08 00:29:22;;;;;;;7.60;1.60;;;8.90;89.20;;;;;;10481374;28;20226;-71
2022/04/08 00:34:25;;;;;;;6.50;1.73;;;8.90;90.30;;;;;;10463626;28;20288;-72
2022/04/08 00:39:26;;;;;;;6.87;1.87;;;8.90;90.00;;;;;;10457952;28;20260;-73
2022/04/08 00:44:26;;;;;;;5.97;1.60;;;8.80;90.40;;;;;;10457538;28;20228;-72
2022/04/08 00:49:27;;;;;;;9.13;1.60;;;8.80;90.80;;;;;;10460591;28;20259;-72
2022/04/08 00:54:30;;;;;;;7.27;1.60;;;8.80;91.00;;;;;;10455919;28;20214;-73
2022/04/08 00:59:32;;;;;;;6.83;1.87;;;8.70;91.40;;;;;;10459767;28;20224;-72
2022/04/08 01:04:33;;;;;;;4.70;1.67;;;8.70;91.70;;;;;;10460671;28;20277;-72
2022/04/08 01:09:34;;;;;;;9.37;2.17;;;8.70;92.10;;;;;;10456300;28;20952;-72
2022/04/08 01:14:40;;;;;;;5.20;1.63;;;8.60;92.10;;;;;;10458604;28;20221;-73
2022/04/08 01:19:41;;;;;;;8.37;2.20;;;8.60;92.50;;;;;;10457610;28;20233;-72
2022/04/08 01:24:46;;;;;;;9.13;1.77;;;8.60;92.70;;;;;;10461673;28;20611;-72
2022/04/08 01:29:49;;;;;;;8.73;1.83;;;8.50;93.00;;;;;;10452005;28;20769;-72
2022/04/08 01:34:52;;;;;;;6.83;1.87;;;8.50;93.40;;;;;;10489789;28;20216;-71
2022/04/08 01:39:53;;;;;;;7.37;1.73;;;8.50;93.40;;;;;;10464714;28;20226;-72
2022/04/08 01:44:54;;;;;;;7.57;1.80;;;8.40;93.50;;;;;;10456770;28;20234;-73
2022/04/08 01:49:55;;;;;;;8.40;1.53;;;8.30;93.70;;;;;;10457328;28;20232;-72
2022/04/08 01:54:59;;;;;;;6.40;1.57;;;8.30;93.90;;;;;;10456214;28;20338;-72
2022/04/08 01:59:59;;;;;;;8.37;1.93;;;8.30;94.50;;;;;;10456326;28;20221;-74
2022/04/08 02:05:02;;;;;;;10.83;1.80;;;8.30;95.00;;;;;;10455234;28;20240;-71
2022/04/08 02:10:04;;;;;;;9.27;1.50;;;8.20;95.30;;;;;;10458665;28;20221;-74
2022/04/08 02:15:05;;;;;;;11.43;2.53;;;8.20;95.60;;;;;;10447185;28;20220;-71
2022/04/08 02:20:10;;;;;;;8.07;1.73;;;8.10;96.10;;;;;;10467919;28;20187;-74
2022/04/08 02:25:11;;;;;;;7.83;2.63;;;8.00;96.70;;;;;;10460538;28;20185;-71
2022/04/08 02:30:15;;;;;;;8.13;1.77;;;8.00;96.90;;;;;;10462740;28;20208;-71
2022/04/08 02:35:15;;;;;;;9.73;1.80;;;8.10;97.30;;;;;;10453211;28;20227;-72
2022/04/08 02:40:16;;;;;;;9.33;2.10;;;8.00;97.80;;;;;;10449416;28;20212;-71
2022/04/08 02:45:20;;;;;;;9.60;2.03;;;8.00;98.40;;;;;;10453827;28;20219;-71
2022/04/08 02:50:20;;;;;;;8.80;2.30;;;7.90;99.00;;;;;;10460134;28;20208;-71
2022/04/08 02:55:21;;;;;;;5.13;1.90;;;7.90;99.40;;;;;;10458090;28;20192;-75
2022/04/08 03:00:23;;;;;;;10.10;2.50;;;8.00;99.90;;;;;;10456336;28;20196;-75
2022/04/08 03:05:24;;;;;;;11.23;2.30;;;8.00;99.90;;;;;;10457950;28;20421;-73
2022/04/08 03:10:24;;;;;;;10.53;1.87;;;8.00;99.90;;;;;;10463614;28;20695;-73
2022/04/08 03:15:25;;;;;;;7.33;1.60;;;7.90;99.90;;;;;;10452576;28;20216;-75
2022/04/08 03:20:26;;;;;;;8.23;1.80;;;8.00;99.90;;;;;;10454160;28;20217;-73
2022/04/08 03:25:26;;;;;;;8.73;1.87;;;8.10;99.90;;;;;;10455567;28;20220;-75
2022/04/08 03:30:27;;;;;;;6.97;2.07;;;8.20;99.90;;;;;;10461929;28;20231;-72
2022/04/08 03:35:28;;;;;;;10.90;2.00;;;8.30;99.90;;;;;;10452892;28;20240;-71
2022/04/08 03:40:28;;;;;;;9.23;1.97;;;8.30;99.90;;;;;;10467066;28;20245;-72
2022/04/08 03:45:35;;;;;;;4.90;1.77;;;8.30;99.90;;;;;;10450808;28;20920;-72
2022/04/08 03:50:39;;;;;;;9.30;1.80;;;8.30;99.90;;;;;;10452304;28;20240;-72
2022/04/08 03:55:40;;;;;;;6.00;1.70;;;8.30;99.90;;;;;;10452224;28;20715;-71
2022/04/08 04:00:41;;;;;;;4.90;1.20;;;8.20;99.90;;;;;;10451637;28;20308;-72
2022/04/08 04:05:43;;;;;;;3.13;1.13;;;8.30;99.90;;;;;;10459750;28;20219;-72
2022/04/08 04:10:48;;;;;;;2.40;1.13;;;8.20;99.90;;;;;;10462039;28;20230;-71
2022/04/08 04:15:49;;;;;;;3.63;1.13;;;8.10;99.90;;;;;;10452335;28;20221;-73
2022/04/08 04:20:49;;;;;;;2.73;1.00;;;8.10;99.90;;;;;;10459637;28;20229;-75
2022/04/08 04:25:56;;;;;;;4.27;1.47;;;8.10;99.90;;;;;;10465379;28;20223;-74
2022/04/08 04:30:59;;;;;;;3.90;1.47;;;8.20;99.90;;;;;;10459675;28;20230;-73
2022/04/08 04:36:03;;;;;;;7.63;1.50;;;8.10;99.90;;;;;;10459473;28;20218;-73
2022/04/08 04:41:03;;;;;;;10.57;4.13;;;8.20;99.90;;;;;;10452963;28;20594;-73
2022/04/08 04:46:04;;;;;;;9.90;2.13;;;8.20;99.90;;;;;;10462361;28;20228;-74
2022/04/08 04:51:05;;;;;;;9.23;2.30;;;8.20;99.90;;;;;;10467869;28;20226;-74
2022/04/08 04:56:05;;;;;;;10.20;2.27;;;8.20;99.90;;;;;;10459171;28;20232;-72
2022/04/08 05:01:06;;;;;;;12.30;2.37;;;8.10;99.90;;;;;;10478141;28;20277;-72
2022/04/08 05:06:07;;;;;;;11.70;2.37;;;8.10;99.90;;;;;;10463260;28;20215;-72
2022/04/08 05:11:07;;;;;;;9.87;2.40;;;8.10;99.90;;;;;;10454530;28;20383;-70
2022/04/08 05:16:08;;;;;;;9.80;2.30;;;8.10;99.90;;;;;;10454080;28;20741;-73
2022/04/08 05:21:08;;;;;;;11.90;2.63;;;8.10;99.90;;;;;;10457064;28;20219;-70
2022/04/08 05:26:09;;;;;;;9.93;2.77;;;8.20;99.90;;;;;;10487792;28;20232;-71
2022/04/08 05:31:09;;;;;;;8.03;2.40;;;8.20;99.90;;;;;;10456478;28;20291;-72
2022/04/08 05:36:10;;;;;;;10.97;2.17;;;8.30;99.90;;;;;;10491743;28;20431;-73
2022/04/08 05:41:11;;;;;;;8.10;1.93;;;8.40;99.90;;;;;;10457882;28;20213;-70
2022/04/08 05:46:12;;;;;;;10.60;2.27;;;8.50;99.90;;;;;;10455794;28;20704;-71
2022/04/08 05:51:13;;;;;;;7.70;2.10;;;8.60;99.90;;;;;;10454021;28;20270;-72
2022/04/08 05:56:13;;;;;;;9.57;2.90;;;8.70;99.90;;;;;;10463559;28;20210;-72
2022/04/08 06:01:14;;;;;;;9.10;2.07;;;8.90;99.90;;;;;;10436005;28;20226;-72
2022/04/08 06:06:15;;;;;;;4.70;1.60;;;9.00;99.90;;;;;;10429582;28;20331;-72
2022/04/08 06:11:15;;;;;;;10.33;2.40;;;9.30;99.90;;;;;;10425947;28;20246;-72
2022/04/08 06:16:17;;;;;;;11.53;2.30;;;9.80;99.90;;;;;;10458010;28;20220;-72
2022/04/08 06:21:18;;;;;;;9.83;2.30;;;10.00;99.90;;;;;;10452066;28;20208;-71
2022/04/08 06:26:18;;;;;;;12.00;2.73;;;10.00;99.90;;;;;;10451389;28;20896;-70
2022/04/08 06:31:19;;;;;;;7.23;1.80;;;10.10;99.90;;;;;;10446034;28;20224;-69
2022/04/08 06:36:19;;;;;;;7.60;2.10;;;10.30;99.90;;;;;;10459283;28;20323;-71
2022/04/08 06:41:21;;;;;;;9.87;2.07;;;10.60;99.90;;;;;;10449661;28;20286;-72
2022/04/08 06:46:22;;;;;;;12.57;2.47;;;10.80;99.90;;;;;;10457308;28;20231;-71
2022/04/08 06:51:23;;;;;;;7.67;2.70;;;11.00;99.90;;;;;;10452987;28;20326;-71
2022/04/08 06:56:23;;;;;;;9.20;2.83;;;11.00;99.90;;;;;;10438150;28;20821;-72
2022/04/08 07:01:25;;;;;;;10.47;2.40;;;10.80;99.90;;;;;;10441550;28;20234;-71
2022/04/08 07:06:28;;;;;;;6.80;2.10;;;10.50;99.90;;;;;;10446600;28;20289;-71
2022/04/08 07:11:29;;;;;;;8.80;2.40;;;10.20;99.90;;;;;;10480125;28;20227;-69
2022/04/08 07:16:30;;;;;;;9.87;2.37;;;10.20;99.90;;;;;;10448998;28;20215;-69
2022/04/08 07:21:31;;;;;;;13.03;2.47;;;10.40;99.90;;;;;;10442567;28;20312;-69
2022/04/08 07:26:31;;;;;;;10.43;2.40;;;10.70;99.90;;;;;;10441013;28;20216;-69
2022/04/08 07:31:32;;;;;;;7.70;2.47;;;10.90;99.90;;;;;;10459671;28;20241;-69
2022/04/08 07:36:33;;;;;;;11.27;2.73;;;11.10;99.90;;;;;;10463091;28;20226;-69
2022/04/08 07:41:33;;;;;;;7.57;2.53;;;11.40;99.90;;;;;;10447080;28;20718;-69
2022/04/08 07:46:34;;;;;;;10.20;2.60;;;11.60;99.90;;;;;;10431859;28;20296;-69
2022/04/08 07:51:34;;;;;;;9.10;2.50;;;11.70;99.90;;;;;;10448405;28;20234;-69
2022/04/08 07:56:35;;;;;;;4.93;2.63;;;11.70;99.90;;;;;;10450173;28;20225;-69
2022/04/08 08:01:35;;;;;;;8.80;2.80;;;11.60;99.90;;;;;;10448545;28;20821;-69
2022/04/08 08:06:36;;;;;;;7.30;2.50;;;11.30;99.90;;;;;;10460219;28;20223;-69
2022/04/08 08:11:36;;;;;;;11.50;2.67;;;11.20;99.90;;;;;;10453888;28;20574;-69
2022/04/08 08:16:37;;;;;;;6.67;2.60;;;11.10;99.90;;;;;;10453901;28;20603;-71
2022/04/08 08:21:38;;;;;;;9.53;3.00;;;11.00;99.90;;;;;;10450868;28;20262;-71
2022/04/08 08:26:39;;;;;;;7.83;3.07;;;11.00;99.90;;;;;;10448005;28;20250;-68
2022/04/08 08:31:39;;;;;;;11.10;3.17;;;11.00;99.90;;;;;;10455416;28;20587;-69
2022/04/08 08:36:40;;;;;;;11.70;3.70;;;11.00;99.90;;;;;;10449347;28;20268;-68
2022/04/08 08:41:40;;;;;;;9.30;3.10;;;11.20;99.90;;;;;;10450908;28;20227;-68
2022/04/08 08:46:41;;;;;;;10.57;3.13;;;11.20;99.90;;;;;;10460401;28;20231;-68
2022/04/08 08:51:44;;;;;;;13.50;3.60;;;11.30;99.90;;;;;;10455814;28;20777;-71
2022/04/08 08:56:45;;;;;;;8.47;3.27;;;11.50;99.90;;;;;;10446211;28;20358;-69
2022/04/08 09:01:47;;;;;;;9.20;3.20;;;11.50;99.90;;;;;;10441690;28;20245;-70
2022/04/08 09:06:48;;;;;;;10.40;3.40;;;11.50;99.90;;;;;;10458418;28;20223;-69
2022/04/08 09:11:48;;;;;;;10.33;3.13;;;11.60;99.90;;;;;;10455283;28;20238;-72
2022/04/08 09:16:49;;;;;;;9.30;3.40;;;11.60;99.90;;;;;;10456959;28;20223;-70
2022/04/08 09:21:52;;;;;;;6.53;2.17;;;11.60;99.90;;;;;;10457370;28;20245;-71
2022/04/08 09:26:53;;;;;;;8.10;1.97;;;11.40;99.90;;;;;;10454531;28;20231;-73
2022/04/08 09:31:57;;;;;;;6.57;1.93;;;11.10;99.90;;;;;;10463265;28;20266;-71
2022/04/08 09:36:58;;;;;;;6.30;1.93;;;10.80;99.90;;;;;;10453802;28;20571;-70
2022/04/08 09:42:03;;;;;;;8.37;2.33;;;10.70;99.90;;;;;;10489234;28;20306;-69
2022/04/08 09:47:05;;;;;;;8.87;2.20;;;10.70;99.90;;;;;;10448386;28;20224;-70
2022/04/08 09:52:07;;;;;;;5.63;1.70;;;10.60;99.90;;;;;;10451701;28;21026;-70
2022/04/08 09:57:16;;;;;;;8.63;1.67;;;10.50;99.90;;;;;;10452130;28;20229;-70
2022/04/08 10:02:18;;;;;;;6.80;1.97;;;10.40;99.90;;;;;;10451914;28;20219;-71
2022/04/08 10:07:19;;;;;;;4.17;1.37;;;10.40;99.90;;;;;;10469113;28;20227;-70
2022/04/08 10:12:46;;;;;;;2.97;1.17;;;10.30;99.90;;;;;;10453292;28;20219;-70
2022/04/08 10:17:58;;;;;;;3.97;1.43;;;10.10;99.90;;;;;;10436222;28;20228;-70
2022/04/08 10:23:11;;;;;;;5.13;1.63;;;9.90;99.90;;;;;;10451438;28;20230;-71
2022/04/08 10:28:12;;;;;;;5.50;2.00;;;9.70;99.90;;;;;;10443320;28;20220;-70
2022/04/08 10:33:13;;;;;;;6.07;2.00;;;9.60;99.90;;;;;;10451081;28;20218;-71
2022/04/08 10:38:14;;;;;;;5.73;2.13;;;9.70;99.90;;;;;;10447649;28;20308;-71
2022/04/08 10:43:15;;;;;;;5.30;1.80;;;9.80;99.90;;;;;;10455126;28;20319;-70
2022/04/08 10:48:15;;;;;;;6.63;1.90;;;10.00;99.90;;;;;;10451986;28;20318;-70
2022/04/08 10:53:24;;;;;;;5.67;2.00;;;10.00;99.90;;;;;;10452315;28;20225;-70
2022/04/08 10:58:33;;;;;;;6.00;1.83;;;10.00;99.90;;;;;;10447785;28;20219;-70
2022/04/08 11:03:35;;;;;;;3.60;1.13;;;9.90;99.90;;;;;;10452370;28;20216;-70
2022/04/08 11:08:36;;;;;;;4.03;1.30;;;10.00;99.90;;;;;;10457784;28;20299;-70
2022/04/08 11:13:40;;;;;;;5.07;2.17;;;9.90;99.90;;;;;;10452062;28;20230;-71
2022/04/08 11:18:47;;;;;;;3.13;1.73;;;9.90;99.90;;;;;;10451166;28;20670;-73
2022/04/08 11:24:02;;;;;;;7.30;1.93;;;10.00;99.90;;;;;;10439789;28;20300;-70
2022/04/08 11:29:10;;;;;;;4.73;2.07;;;10.00;99.90;;;;;;10449549;28;20789;-71
2022/04/08 11:34:13;;;;;;;3.13;1.80;;;9.90;99.90;;;;;;10442265;28;20722;-71
2022/04/08 11:39:21;;;;;;;2.50;1.70;;;10.00;99.90;;;;;;10450000;28;20755;-71
2022/04/08 11:44:22;;;;;;;3.87;1.70;;;10.00;99.90;;;;;;10439631;28;20222;-71
2022/04/08 11:49:27;;;;;;;2.83;1.60;;;9.90;99.90;;;;;;10444523;28;20714;-73
2022/04/08 11:54:40;;;;;;;4.00;1.90;;;9.90;99.90;;;;;;10450482;28;20227;-71
2022/04/08 11:59:43;;;;;;;3.37;1.70;;;10.00;99.90;;;;;;10449166;28;20230;-70
2022/04/08 12:04:44;;;;;;;2.87;1.80;;;10.10;99.90;;;;;;10449623;28;20254;-70
2022/04/08 12:09:48;;;;;;;5.13;2.10;;;10.00;99.90;;;;;;10444609;28;20255;-71
2022/04/08 12:14:49;;;;;;;5.40;1.40;;;9.90;99.90;;;;;;10441984;28;20668;-71
2022/04/08 12:19:53;;;;;;;3.53;1.33;;;9.90;99.90;;;;;;10448062;28;20237;-71
2022/04/08 12:24:53;;;;;;;3.50;1.37;;;9.80;99.90;;;;;;10448263;28;20223;-71
2022/04/08 12:29:59;;;;;;;2.83;1.10;;;9.80;99.90;;;;;;10448419;28;20277;-70
2022/04/08 12:34:59;;;;;;;3.37;1.37;;;9.80;99.90;;;;;;10443202;28;20243;-71
2022/04/08 12:40:00;;;;;;;3.40;1.40;;;9.80;99.90;;;;;;10481450;28;20302;-71
2022/04/08 12:45:01;;;;;;;1.37;0.63;;;9.60;99.90;;;;;;10457038;28;20276;-71
2022/04/08 12:50:04;;;;;;;3.07;0.70;;;9.30;99.90;;;;;;10455667;28;20277;-72
2022/04/08 12:55:06;;;;;;;0.50;0.50;;;9.10;99.90;;;;;;10451618;28;20227;-72
2022/04/08 13:00:11;;;;;;;2.17;0.93;;;8.90;99.90;;;;;;10455694;28;20297;-71
2022/04/08 13:05:13;;;;;;;1.43;0.80;;;8.80;99.90;;;;;;10455677;28;20285;-72
2022/04/08 13:11:46;;;;;;;1.43;0.60;;;8.60;99.90;;;;;;10335154;28;20318;-72
2022/04/08 13:16:47;;;;;;;1.23;0.60;;;8.40;99.90;;;;;;10260118;28;20225;-72
2022/04/08 13:21:50;;;;;;;0.47;0.47;;;8.30;99.90;;;;;;10251992;28;20589;-72
2022/04/08 13:26:51;;;;;;;2.07;0.40;;;8.20;99.90;;;;;;10259374;28;20231;-71
2022/04/08 13:31:51;;;;;;;0.60;0.40;;;7.90;99.90;;;;;;10257033;28;20688;-72
2022/04/08 13:36:52;;;;;;;1.40;0.80;;;7.80;99.90;;;;;;10252973;28;20213;-71
2022/04/08 13:41:52;;;;;;;0.40;0.40;;;7.70;99.90;;;;;;10296813;28;20695;-72
2022/04/08 13:46:53;;;;;;;0.83;0.50;;;7.80;99.90;;;;;;10251225;28;20287;-71
2022/04/08 13:51:58;;;;;;;0.50;0.50;;;7.60;99.90;;;;;;10257550;28;20225;-70
2022/04/08 13:56:59;;;;;;;0.53;0.50;;;7.60;99.90;;;;;;10249678;28;20225;-71
2022/04/08 14:02:00;;;;;;;0.60;0.50;;;7.60;99.90;;;;;;10260249;28;20214;-71
2022/04/08 14:07:02;;;;;;;0.63;0.63;;;7.40;99.90;;;;;;10253564;28;20358;-72
2022/04/08 14:12:02;;;;;;;3.93;2.13;;;7.30;99.90;;;;;;10247516;28;20221;-71
2022/04/08 14:17:03;;;;;;;1.30;0.80;;;7.50;99.90;;;;;;10256804;28;20327;-71
2022/04/08 14:22:05;;;;;;;0.90;0.37;;;7.60;99.90;;;;;;10227959;28;20851;-71
2022/04/08 14:27:05;;;;;;;0.67;0.40;;;7.50;99.90;;;;;;10222805;28;20813;-71
2022/04/08 14:32:06;;;;;;;0.30;0.30;;;7.60;99.90;;;;;;10229479;28;20213;-70
2022/04/08 14:37:07;;;;;;;0.40;0.23;;;7.50;99.90;;;;;;10223927;28;20762;-71
2022/04/08 14:42:08;;;;;;;0.63;0.40;;;7.20;99.90;;;;;;10260839;28;20224;-70
2022/04/08 14:47:08;;;;;;;0.13;0.13;;;7.00;99.90;;;;;;10227602;28;20320;-70
2022/04/08 14:52:09;;;;;;;0.30;0.30;;;6.90;99.90;;;;;;10215294;28;20225;-71
2022/04/08 14:57:13;;;;;;;0.20;0.20;;;6.70;99.90;;;;;;10220352;28;20223;-71
2022/04/08 15:02:15;;;;;;;0.67;0.40;;;6.40;99.90;;;;;;10228205;28;20223;-70
2022/04/08 15:07:16;;;;;;;1.00;0.53;;;6.30;99.90;;;;;;10224527;28;20719;-73
2022/04/08 15:12:18;;;;;;;0.33;0.30;;;6.30;99.90;;;;;;10224488;28;20228;-72
2022/04/08 15:17:18;;;;;;;1.13;0.40;;;6.40;99.90;;;;;;10219619;28;20319;-71
2022/04/08 15:22:19;;;;;;;0.30;0.30;;;6.50;99.90;;;;;;10221616;28;20231;-71
2022/04/08 15:27:20;;;;;;;1.00;0.33;;;6.20;99.90;;;;;;10224010;28;20220;-71
2022/04/08 15:32:20;;;;;;;0.73;0.30;;;6.00;99.90;;;;;;10261935;28;20230;-70
2022/04/08 15:37:24;;;;;;;0.30;0.30;;;6.00;99.90;;;;;;10223833;28;20796;-70
2022/04/08 15:42:24;;;;;;;0.30;0.30;;;6.00;99.90;;;;;;10224487;28;20228;-71
2022/04/08 15:47:25;;;;;;;0.20;0.20;;;6.10;99.90;;;;;;10223850;28;20613;-71
2022/04/08 15:52:26;;;;;;;0.67;0.50;;;6.10;99.90;;;;;;10214456;28;20306;-72
2022/04/08 15:57:28;;;;;;;0.50;0.40;;;6.00;99.90;;;;;;10222859;28;20641;-71
2022/04/08 16:02:29;;;;;;;1.10;0.60;;;6.00;99.90;;;;;;10213471;28;20230;-70
2022/04/08 16:07:30;;;;;;;1.37;0.77;;;6.30;99.90;;;;;;10228000;28;20790;-71
2022/04/08 16:12:31;;;;;;;1.03;0.50;;;6.30;99.90;;;;;;10221419;28;20582;-71
2022/04/08 16:17:32;;;;;;;2.43;0.50;;;6.40;99.90;;;;;;10219835;28;20238;-71
2022/04/08 16:22:33;;;;;;;0.27;0.27;;;6.30;99.90;;;;;;10211221;28;20771;-72
2022/04/08 16:27:33;;;;;;;0.97;0.70;;;6.30;99.90;;;;;;10216462;28;20235;-71
2022/04/08 16:32:37;;;;;;;1.00;0.53;;;6.20;99.90;;;;;;10215970;28;20223;-71
2022/04/08 16:37:38;;;;;;;1.47;1.37;;;6.10;99.90;;;;;;10218958;28;20236;-71
2022/04/08 16:42:43;;;;;;;1.13;1.00;;;6.20;99.90;;;;;;10227744;28;20717;-71
2022/04/08 16:47:44;;;;;;;1.00;0.90;;;6.20;99.90;;;;;;10220046;28;20259;-71
2022/04/08 16:52:44;;;;;;;4.03;2.67;;;6.10;99.90;;;;;;10225710;28;20701;-70
2022/04/08 16:57:45;;;;;;;3.03;1.60;;;6.10;99.90;;;;;;10218133;28;20220;-71
2022/04/08 17:02:46;;;;;;;0.77;0.77;;;6.10;99.90;;;;;;10205615;28;20224;-72
2022/04/08 17:07:46;;;;;;;0.83;0.83;;;5.90;99.90;;;;;;10227769;28;20231;-71
2022/04/08 17:12:47;;;;;;;0.80;0.80;;;5.90;99.90;;;;;;10218088;28;20228;-71
2022/04/08 17:17:47;;;;;;;0.50;0.50;;;5.80;99.90;;;;;;10227076;28;20592;-71
2022/04/08 17:22:48;;;;;;;1.30;1.20;;;5.80;99.90;;;;;;10225378;28;20237;-71
2022/04/08 17:27:50;;;;;;;1.17;1.07;;;5.70;99.90;;;;;;10225600;28;20235;-71
2022/04/08 17:32:50;;;;;;;1.90;1.70;;;5.70;99.90;;;;;;10252977;28;20226;-71
2022/04/08 17:37:51;;;;;;;0.80;0.80;;;5.70;99.90;;;;;;10264043;28;20305;-71
2022/04/08 17:42:52;;;;;;;0.93;0.93;;;5.60;99.90;;;;;;10217544;28;20229;-71
2022/04/08 17:47:55;;;;;;;1.80;1.03;;;5.50;99.90;;;;;;10218947;28;20772;-71
2022/04/08 17:52:56;;;;;;;0.97;0.87;;;5.40;99.90;;;;;;10217300;28;20228;-72
2022/04/08 17:57:56;;;;;;;2.07;0.80;;;5.40;99.90;;;;;;10237671;28;20231;-72
2022/04/08 18:02:57;;;;;;;1.03;0.60;;;5.30;99.90;;;;;;10225601;28;20231;-72
2022/04/08 18:07:58;;;;;;;1.17;0.90;;;5.30;99.90;;;;;;10222842;28;20469;-72
2022/04/08 18:12:59;;;;;;;0.80;0.80;;;5.20;99.90;;;;;;10228202;28;20235;-71
2022/04/08 18:18:02;;;;;;;1.30;0.90;;;5.20;99.90;;;;;;10222324;28;20224;-71
2022/04/08 18:23:03;;;;;;;3.93;1.53;;;5.10;99.90;;;;;;10248818;28;20229;-71
2022/04/08 18:28:08;;;;;;;1.03;0.97;;;5.00;99.90;;;;;;10223922;28;20616;-71
2022/04/08 18:33:09;;;;;;;1.23;1.13;;;5.00;99.90;;;;;;10220556;28;20951;-71
2022/04/08 18:38:10;;;;;;;1.50;1.17;;;4.90;99.90;;;;;;10217413;28;20266;-72
2022/04/08 18:43:10;;;;;;;1.30;1.20;;;4.90;99.90;;;;;;10221339;28;20227;-72
2022/04/08 18:48:11;;;;;;;1.90;1.40;;;4.80;99.90;;;;;;10222897;28;20270;-73
2022/04/08 18:53:12;;;;;;;1.63;1.40;;;4.80;99.90;;;;;;10234510;28;20233;-72
2022/04/08 18:58:12;;;;;;;2.43;2.03;;;4.80;99.90;;;;;;10226323;28;20216;-71
2022/04/08 19:03:13;;;;;;;1.73;1.40;;;4.80;99.90;;;;;;10228813;28;20216;-73
2022/04/08 19:08:14;;;;;;;2.60;1.90;;;4.90;99.90;;;;;;10225173;28;20235;-73
2022/04/08 19:13:15;;;;;;;1.93;1.80;;;5.00;99.90;;;;;;10224886;28;20217;-72
2022/04/08 19:18:15;;;;;;;2.10;1.87;;;4.90;99.90;;;;;;10219415;28;20219;-72
2022/04/08 19:23:16;;;;;;;1.50;1.40;;;5.00;99.90;;;;;;10224101;28;20225;-73
2022/04/08 19:28:17;;;;;;;2.13;1.70;;;4.80;99.90;;;;;;10265242;28;20223;-73
2022/04/08 19:33:17;;;;;;;2.17;1.30;;;4.70;99.90;;;;;;10261350;28;20267;-71
2022/04/08 19:38:18;;;;;;;3.23;2.07;;;4.70;99.90;;;;;;10224793;28;20251;-72
2022/04/08 19:43:19;;;;;;;1.53;1.43;;;4.80;99.90;;;;;;10221859;28;20883;-72
2022/04/08 19:48:20;;;;;;;3.23;2.23;;;4.80;99.90;;;;;;10220375;28;20767;-71
2022/04/08 19:53:21;;;;;;;2.17;1.97;;;4.90;99.90;;;;;;10221803;28;20356;-73
2022/04/08 19:58:21;;;;;;;2.67;2.00;;;4.90;99.90;;;;;;10209791;28;20432;-72
2022/04/08 20:03:22;;;;;;;2.93;1.63;;;4.90;99.90;;;;;;10208261;28;20306;-72
2022/04/08 20:08:23;;;;;;;2.30;2.00;;;4.80;99.90;;;;;;10205955;28;20229;-72
2022/04/08 20:13:24;;;;;;;2.17;1.97;;;4.80;99.90;;;;;;10206085;28;20241;-71
2022/04/08 20:18:25;;;;;;;2.70;2.50;;;4.90;99.90;;;;;;10208968;28;20372;-71
2022/04/08 20:23:25;;;;;;;3.90;3.33;;;4.90;99.90;;;;;;10221921;28;20289;-72
2022/04/08 20:28:26;;;;;;;3.20;2.40;;;5.10;99.90;;;;;;10224077;28;20268;-72
2022/04/08 20:33:27;;;;;;;3.03;2.60;;;5.20;99.90;;;;;;10217793;28;20250;-74
2022/04/08 20:38:28;;;;;;;4.27;2.90;;;5.30;99.90;;;;;;10222549;28;20236;-72
2022/04/08 20:43:29;;;;;;;3.50;2.70;;;5.30;99.90;;;;;;10228106;28;20694;-72
2022/04/08 20:48:30;;;;;;;6.50;3.97;;;5.20;99.90;;;;;;10216293;28;20229;-72
2022/04/08 20:53:30;;;;;;;5.90;4.17;;;5.20;99.90;;;;;;10226406;28;20220;-74
2022/04/08 20:58:35;;;;;;;3.70;3.13;;;5.20;99.90;;;;;;10225441;28;20226;-73
2022/04/08 21:03:37;;;;;;;3.87;3.57;;;5.10;99.90;;;;;;10221426;28;20284;-71
2022/04/08 21:08:41;;;;;;;7.00;3.97;;;5.10;99.90;;;;;;10232391;28;20286;-74
2022/04/08 21:13:42;;;;;;;4.73;3.73;;;5.10;99.90;;;;;;10201577;29;20255;-73
2022/04/08 21:18:47;;;;;;;4.40;3.87;;;4.90;99.90;;;;;;10215389;28;20236;-71
2022/04/08 21:23:47;;;;;;;3.83;3.20;;;4.80;99.90;;;;;;10195693;29;20676;-71
2022/04/08 21:28:48;;;;;;;4.37;3.50;;;4.80;99.90;;;;;;10225118;28;20321;-72
2022/04/08 21:33:48;;;;;;;5.73;4.73;;;4.80;99.90;;;;;;10230915;28;20224;-71
2022/04/08 21:38:49;;;;;;;4.97;4.20;;;4.80;99.90;;;;;;10223207;28;20304;-71
2022/04/08 21:43:50;;;;;;;3.73;3.03;;;4.80;99.90;;;;;;10223352;28;20282;-72
2022/04/08 21:48:58;;;;;;;2.20;2.00;;;4.70;99.90;;;;;;10219450;28;20229;-72
2022/04/08 21:53:59;;;;;;;2.03;1.77;;;4.50;99.90;;;;;;10228913;28;20285;-73
2022/04/08 21:59:00;;;;;;;2.50;2.30;;;4.30;99.90;;;;;;10233527;28;20771;-72
2022/04/08 22:04:01;;;;;;;2.60;2.40;;;4.30;99.90;;;;;;10229547;28;20223;-75
2022/04/08 22:09:04;;;;;;;3.60;2.63;;;4.20;99.90;;;;;;10228061;28;20239;-72
2022/04/08 22:14:06;;;;;;;2.17;2.07;;;4.20;99.90;;;;;;10217140;28;20706;-74
2022/04/08 22:19:06;;;;;;;2.30;2.10;;;4.30;99.90;;;;;;10230866;28;20259;-72
2022/04/08 22:24:07;;;;;;;3.93;2.90;;;4.30;99.90;;;;;;10208596;28;20267;-72
2022/04/08 22:29:09;;;;;;;5.60;3.10;;;4.40;99.90;;;;;;10215355;29;20219;-72
2022/04/08 22:34:09;;;;;;;4.83;3.70;;;4.50;99.90;;;;;;10226846;28;20222;-71
2022/04/08 22:39:10;;;;;;;3.40;3.10;;;4.50;99.90;;;;;;10218451;28;20724;-71
2022/04/08 22:44:12;;;;;;;5.17;3.43;;;4.60;99.90;;;;;;10221809;28;20786;-71
2022/04/08 22:49:13;;;;;;;5.03;3.50;;;4.70;99.90;;;;;;10216353;28;20732;-71
2022/04/08 22:54:13;;;;;;;6.43;4.00;;;4.80;99.90;;;;;;10227309;28;20227;-71
2022/04/08 22:59:14;;;;;;;4.33;3.87;;;4.90;99.90;;;;;;10232625;28;20224;-70
2022/04/08 23:04:15;;;;;;;3.63;3.30;;;4.90;99.90;;;;;;10225849;28;20229;-71
2022/04/08 23:09:16;;;;;;;3.60;3.30;;;4.70;99.90;;;;;;10225380;29;20245;-71
2022/04/08 23:14:17;;;;;;;4.60;4.10;;;4.60;99.90;;;;;;10225319;28;20227;-71
2022/04/08 23:19:17;;;;;;;6.83;5.13;;;4.60;99.90;;;;;;10226649;28;20227;-71
2022/04/08 23:24:19;;;;;;;5.30;4.80;;;4.50;99.90;;;;;;10220737;28;20680;-72
2022/04/08 23:29:19;;;;;;;5.67;5.07;;;4.40;99.90;;;;;;10220692;28;20290;-71
2022/04/08 23:34:20;;;;;;;7.37;5.73;;;4.40;99.90;;;;;;10224699;28;20248;-72
2022/04/08 23:39:21;;;;;;;6.30;5.30;;;4.30;99.90;;;;;;10231140;28;20261;-72
2022/04/08 23:44:21;;;;;;;7.07;5.90;;;4.30;99.90;;;;;;10231489;28;20286;-73
2022/04/08 23:49:22;;;;;;;6.53;5.67;;;4.30;99.90;;;;;;10227917;28;20269;-71
2022/04/08 23:54:23;;;;;;;6.43;5.77;;;4.30;99.90;;;;;;10228092;28;20227;-71
2022/04/08 23:59:26;;;;;;;7.10;6.40;;;4.30;99.90;;;;;;10224265;28;20251;-71
